La Marque, Texas
Current Conditions -  °F | °C
As of 9:52 PM on Wednesday 26 Nov 2014 (Local Time) from KGLS Reporting Station
Clear Clear  
Wind Chill: 14°   Ceiling: Unl
Heat Index: 14°   Visibility: 10mi
Dew Point: 10°   Wind: 6mph
Humidity: 77%   Direction: 220°SW
Pressure: 30.31"   Gusts: NA
Location:  29.37°N, 94.97°W
Report Text: KGLS 270352Z AUTO 22005KT 10SM CLR 14/10 A3031 RMK AO2 SLP262 T01390100
Loading
Personal Weather Stations






























Interactive Weather Map New forecast layout! Learn more

10-Day Weather Forecast

Advertisements
Track Severe Weather on mobile